Time;durP1;ratioP1;P1;durP2;ratioP2;P2;SDS_P1;SDS_P2;PMS_P1;PMS_P2;Temp;Humidity;BMP_temperature;BMP_pressure;BME280_temperature;BME280_humidity;BME280_pressure;Samples;Min_cycle;Max_cycle;Signal;HPM_P1;HPM_P2
2022/08/14 04:00:55;;;;;;;5.57;5.37;;;20.40;99.90;;;;;;5612709;23;20495;-69
2022/08/14 04:03:24;;;;;;;5.97;5.67;;;20.40;99.90;;;;;;4895281;29;20497;-69
2022/08/14 04:05:50;;;;;;;6.43;6.13;;;20.40;99.90;;;;;;4894287;29;20494;-68
2022/08/14 04:08:17;;;;;;;5.20;5.00;;;20.40;99.90;;;;;;4895683;29;20538;-68
2022/08/14 04:10:45;;;;;;;5.80;5.60;;;20.30;99.90;;;;;;4898022;29;20801;-68
2022/08/14 04:13:17;;;;;;;5.90;5.60;;;20.30;99.90;;;;;;4895632;29;20485;-68
2022/08/14 04:15:44;;;;;;;5.67;5.27;;;20.30;99.90;;;;;;4901330;23;20613;-72
2022/08/14 04:18:12;;;;;;;6.53;6.33;;;20.30;99.90;;;;;;4875439;29;20590;-73
2022/08/14 04:20:41;;;;;;;6.10;5.90;;;20.30;99.90;;;;;;4878292;29;20494;-72
2022/08/14 04:23:09;;;;;;;6.47;6.27;;;20.30;99.90;;;;;;4877255;29;20479;-72
2022/08/14 04:25:36;;;;;;;7.10;6.37;;;20.20;99.90;;;;;;4877759;29;20514;-72
2022/08/14 04:28:04;;;;;;;6.17;5.87;;;20.20;99.90;;;;;;4878125;29;20484;-73
2022/08/14 04:30:32;;;;;;;6.57;6.27;;;20.20;99.90;;;;;;4877397;29;20479;-72
2022/08/14 04:32:59;;;;;;;5.90;5.60;;;20.20;99.90;;;;;;4876785;29;20964;-72
2022/08/14 04:35:27;;;;;;;6.10;5.80;;;20.20;99.90;;;;;;4876228;29;20479;-72
2022/08/14 04:43:37;;;;;;;6.17;5.73;;;20.20;99.90;;;;;;4877430;29;20479;-72
2022/08/14 04:46:04;;;;;;;6.33;6.00;;;20.20;99.90;;;;;;4876012;29;20495;-71
2022/08/14 04:48:31;;;;;;;5.80;5.47;;;20.30;99.90;;;;;;4876985;29;20468;-72
2022/08/14 04:50:59;;;;;;;6.17;5.77;;;20.50;99.90;;;;;;4877454;29;20502;-73
2022/08/14 04:53:30;;;;;;;6.30;5.90;;;20.70;99.90;;;;;;4876483;29;20982;-73
2022/08/14 04:55:57;;;;;;;5.83;5.53;;;20.90;99.90;;;;;;4874752;29;20579;-72
2022/08/14 04:58:33;;;;;;;5.40;5.30;;;21.20;99.90;;;;;;4875243;29;20513;-71
2022/08/14 05:01:00;;;;;;;5.90;5.60;;;21.40;99.90;;;;;;4877807;29;20469;-72
2022/08/14 05:03:30;;;;;;;5.70;5.47;;;21.50;99.90;;;;;;4877214;29;20882;-72
2022/08/14 05:06:00;;;;;;;5.50;5.10;;;21.50;99.90;;;;;;4876688;29;20876;-72
2022/08/14 05:08:27;;;;;;;6.20;5.60;;;21.40;99.90;;;;;;4876640;29;20481;-72
2022/08/14 05:10:55;;;;;;;5.73;5.50;;;21.40;99.90;;;;;;4877622;29;20971;-72
2022/08/14 05:13:24;;;;;;;6.30;6.00;;;21.30;99.90;;;;;;4877342;29;20481;-72
2022/08/14 05:15:53;;;;;;;5.93;5.63;;;21.30;99.90;;;;;;4875625;29;20565;-71
2022/08/14 05:18:22;;;;;;;5.70;5.47;;;21.20;99.90;;;;;;4877258;29;20474;-72
2022/08/14 05:20:51;;;;;;;6.17;5.63;;;21.20;99.90;;;;;;4873224;29;20477;-72
2022/08/14 05:23:22;;;;;;;6.20;5.90;;;21.30;99.90;;;;;;4877096;29;20481;-72
2022/08/14 05:25:53;;;;;;;6.20;5.90;;;21.30;99.90;;;;;;4876177;29;20498;-72
2022/08/14 05:28:23;;;;;;;5.90;5.60;;;21.20;99.90;;;;;;4876930;29;20473;-72
2022/08/14 05:30:52;;;;;;;6.23;5.57;;;21.30;99.90;;;;;;4875925;29;21002;-72
2022/08/14 05:33:21;;;;;;;5.63;5.43;;;21.30;99.90;;;;;;4871327;29;20478;-72
2022/08/14 05:35:49;;;;;;;5.33;5.13;;;21.30;99.90;;;;;;4874186;29;20576;-72
2022/08/14 05:38:20;;;;;;;6.00;5.70;;;21.30;99.90;;;;;;4875124;29;20477;-72
2022/08/14 05:40:48;;;;;;;5.93;5.53;;;21.40;99.90;;;;;;4874089;29;21212;-72
2022/08/14 05:43:17;;;;;;;6.20;5.70;;;21.40;99.90;;;;;;4871021;29;21187;-72
2022/08/14 05:45:44;;;;;;;7.40;5.30;;;21.40;99.90;;;;;;4870761;29;20492;-72
2022/08/14 05:48:14;;;;;;;5.33;5.23;;;21.50;99.90;;;;;;4876551;29;20533;-72
2022/08/14 05:50:41;;;;;;;5.77;5.27;;;21.60;99.90;;;;;;4874424;29;20625;-72
2022/08/14 05:53:08;;;;;;;5.93;5.70;;;21.70;99.90;;;;;;4876768;29;20474;-72
2022/08/14 05:55:36;;;;;;;6.10;5.70;;;21.80;99.90;;;;;;4875777;29;20561;-73
2022/08/14 05:58:05;;;;;;;5.63;5.27;;;21.90;99.90;;;;;;4874949;29;20474;-72
2022/08/14 06:00:35;;;;;;;5.33;5.13;;;22.00;99.90;;;;;;4873894;29;20474;-73
2022/08/14 06:03:03;;;;;;;5.83;5.30;;;22.10;99.90;;;;;;4876225;29;20534;-71
2022/08/14 06:05:30;;;;;;;6.63;6.20;;;22.20;99.90;;;;;;4876122;29;20490;-72
2022/08/14 06:07:58;;;;;;;5.43;5.13;;;22.40;99.90;;;;;;4874862;29;20971;-72
2022/08/14 06:10:25;;;;;;;5.80;5.30;;;22.50;99.90;;;;;;4875113;29;20497;-72
2022/08/14 06:12:53;;;;;;;5.60;5.30;;;22.70;99.90;;;;;;4873144;29;20996;-72
2022/08/14 06:15:20;;;;;;;5.60;5.20;;;22.90;99.90;;;;;;4876146;29;20526;-73
2022/08/14 06:17:49;;;;;;;4.87;4.70;;;23.40;99.90;;;;;;4876652;29;20986;-73
2022/08/14 06:20:18;;;;;;;5.40;5.10;;;24.10;99.90;;;;;;4877578;29;20615;-73
2022/08/14 06:22:46;;;;;;;5.27;5.07;;;24.70;99.90;;;;;;4876991;29;20475;-73
2022/08/14 06:25:14;;;;;;;6.00;5.50;;;25.20;99.90;;;;;;4877389;29;20492;-72
2022/08/14 06:27:43;;;;;;;5.80;5.40;;;25.70;99.90;;;;;;4876570;29;20481;-73
2022/08/14 06:30:14;;;;;;;5.97;5.53;;;26.20;99.90;;;;;;4877247;29;20536;-73
2022/08/14 06:32:41;;;;;;;5.17;4.73;;;26.50;99.90;;;;;;4872012;29;20476;-73
2022/08/14 06:35:09;;;;;;;5.53;5.00;;;26.50;99.90;;;;;;4876788;29;20542;-73
2022/08/14 06:37:43;;;;;;;5.03;4.80;;;26.60;99.90;;;;;;4875349;29;20579;-73
2022/08/14 06:40:13;;;;;;;4.40;4.30;;;26.90;99.90;;;;;;4876746;29;20474;-72
2022/08/14 06:42:40;;;;;;;5.27;4.97;;;27.50;99.90;;;;;;4874590;29;20867;-73
2022/08/14 06:45:08;;;;;;;4.77;4.67;;;27.90;99.90;;;;;;4875591;29;20499;-73
2022/08/14 06:47:39;;;;;;;5.03;4.63;;;28.40;99.90;;;;;;4876158;29;20579;-70
2022/08/14 06:50:08;;;;;;;4.63;4.10;;;28.80;99.90;;;;;;4874863;29;20560;-73
2022/08/14 06:52:34;;;;;;;4.23;4.03;;;29.20;99.90;;;;;;4872835;29;20487;-74
2022/08/14 06:55:01;;;;;;;4.00;3.80;;;29.60;99.90;;;;;;4875275;29;20537;-73
2022/08/14 06:57:36;;;;;;;4.20;4.07;;;29.70;99.90;;;;;;4875355;29;20574;-73
2022/08/14 07:00:05;;;;;;;4.30;3.90;;;29.90;99.90;;;;;;4875360;29;20515;-74
2022/08/14 07:08:03;;;;;;;4.87;4.57;;;29.80;99.90;;;;;;4870781;29;20466;-72
2022/08/14 07:10:30;;;;;;;4.73;4.47;;;29.90;99.90;;;;;;4871374;29;20480;-72
2022/08/14 07:12:57;;;;;;;4.57;4.30;;;29.90;99.90;;;;;;4875745;29;20977;-72
2022/08/14 07:15:23;;;;;;;4.60;4.33;;;29.80;99.90;;;;;;4874699;29;20468;-72
2022/08/14 07:17:51;;;;;;;4.33;4.03;;;29.90;99.90;;;;;;4876871;29;20463;-73
2022/08/14 07:20:20;;;;;;;4.70;4.50;;;30.20;99.90;;;;;;4875661;29;20547;-73
2022/08/14 07:22:47;;;;;;;5.50;5.20;;;30.10;99.90;;;;;;4876190;29;20904;-73
2022/08/14 07:25:14;;;;;;;4.97;4.80;;;29.60;99.90;;;;;;4875526;29;20977;-72
2022/08/14 07:27:40;;;;;;;4.33;4.23;;;29.50;99.90;;;;;;4868459;29;20507;-73
2022/08/14 07:30:09;;;;;;;4.77;4.40;;;29.70;99.90;;;;;;4877195;29;20486;-73
2022/08/14 07:32:35;;;;;;;4.80;4.60;;;29.90;99.90;;;;;;4876513;29;20536;-72
2022/08/14 07:35:02;;;;;;;5.80;5.60;;;30.00;99.90;;;;;;4874690;29;20551;-72
2022/08/14 07:37:30;;;;;;;4.93;4.77;;;29.90;99.90;;;;;;4878416;29;20987;-73
2022/08/14 07:39:57;;;;;;;5.13;4.83;;;29.90;99.90;;;;;;4878511;29;20483;-73
2022/08/14 07:42:24;;;;;;;5.00;4.80;;;29.70;99.90;;;;;;4879282;29;20492;-73
2022/08/14 07:44:51;;;;;;;5.17;4.90;;;29.60;99.90;;;;;;4877936;29;20474;-73
2022/08/14 07:47:18;;;;;;;5.40;5.20;;;29.40;99.90;;;;;;4878594;29;20515;-73
2022/08/14 07:49:57;;;;;;;5.20;4.90;;;29.50;99.90;;;;;;4878084;29;20539;-73
2022/08/14 07:52:24;;;;;;;5.67;5.50;;;29.40;99.90;;;;;;4877693;29;20460;-72
2022/08/14 07:54:53;;;;;;;5.50;5.20;;;29.20;99.90;;;;;;4878508;29;20526;-73
2022/08/14 07:57:19;;;;;;;5.53;5.33;;;28.90;99.90;;;;;;4877964;29;20591;-73
2022/08/14 07:59:46;;;;;;;5.37;5.17;;;28.60;99.90;;;;;;4878600;29;20476;-73
2022/08/14 08:02:14;;;;;;;10.23;6.20;;;28.50;99.90;;;;;;4877935;29;20587;-73
2022/08/14 08:04:44;;;;;;;5.63;5.50;;;28.30;99.90;;;;;;4878926;29;20472;-72
2022/08/14 08:07:11;;;;;;;6.33;6.03;;;28.20;99.90;;;;;;4877703;29;20501;-73
2022/08/14 08:09:43;;;;;;;6.27;5.67;;;27.90;99.90;;;;;;4875699;29;20480;-73
2022/08/14 08:12:14;;;;;;;6.63;6.33;;;27.90;99.90;;;;;;4879154;29;20472;-73
2022/08/14 08:14:42;;;;;;;6.87;6.57;;;27.80;99.90;;;;;;4877967;29;20495;-73
2022/08/14 08:17:09;;;;;;;7.00;6.70;;;27.80;99.90;;;;;;4878381;29;20539;-73
2022/08/14 08:19:37;;;;;;;6.67;6.40;;;27.70;99.90;;;;;;4878381;29;20504;-73
2022/08/14 08:22:04;;;;;;;7.13;6.73;;;27.80;99.90;;;;;;4876948;29;20484;-73
2022/08/14 08:24:31;;;;;;;6.80;6.40;;;27.80;99.90;;;;;;4877361;29;21016;-73
2022/08/14 08:26:58;;;;;;;7.30;7.00;;;27.80;99.90;;;;;;4876006;29;21454;-73
2022/08/14 08:29:26;;;;;;;6.80;6.43;;;27.70;99.90;;;;;;4878096;29;20479;-72
2022/08/14 08:31:53;;;;;;;7.40;6.93;;;27.70;99.90;;;;;;4881130;29;20962;-72
2022/08/14 08:34:20;;;;;;;7.23;6.60;;;27.70;99.90;;;;;;4881966;29;20517;-72
2022/08/14 08:36:47;;;;;;;7.13;6.83;;;27.80;99.90;;;;;;4881263;29;20575;-73
2022/08/14 08:39:14;;;;;;;6.57;6.20;;;27.80;99.90;;;;;;4880728;29;20537;-72
2022/08/14 08:41:45;;;;;;;7.27;6.80;;;27.90;99.90;;;;;;4878627;29;20583;-72
2022/08/14 08:44:12;;;;;;;6.67;6.47;;;28.00;99.90;;;;;;4881077;29;20555;-72
2022/08/14 08:46:43;;;;;;;6.77;6.47;;;28.00;99.90;;;;;;4880319;29;20903;-72
2022/08/14 08:49:10;;;;;;;6.90;6.60;;;28.10;99.90;;;;;;4876264;29;20508;-72
2022/08/14 08:51:38;;;;;;;8.23;7.63;;;28.20;99.90;;;;;;4880246;29;20554;-72
2022/08/14 08:54:07;;;;;;;8.40;8.00;;;28.30;99.90;;;;;;4879111;29;20476;-72
2022/08/14 08:56:39;;;;;;;7.07;6.87;;;28.50;99.90;;;;;;4879848;29;20481;-72
2022/08/14 08:59:18;;;;;;;7.50;7.10;;;28.50;99.90;;;;;;4879114;29;20616;-72
2022/08/14 09:01:50;;;;;;;7.67;7.37;;;28.60;99.90;;;;;;4878002;29;20476;-72
2022/08/14 09:04:18;;;;;;;7.00;6.73;;;28.50;99.90;;;;;;4878139;29;20469;-72
2022/08/14 09:06:47;;;;;;;8.20;7.70;;;28.60;99.90;;;;;;4878559;29;20560;-72
2022/08/14 09:09:25;;;;;;;7.37;6.93;;;28.70;99.90;;;;;;4863304;29;20469;-73
2022/08/14 09:11:54;;;;;;;7.73;7.33;;;28.70;99.90;;;;;;4871924;29;20469;-72
2022/08/14 09:14:22;;;;;;;7.43;7.10;;;28.80;99.90;;;;;;4878050;29;20885;-72
2022/08/14 09:16:50;;;;;;;7.80;7.40;;;28.60;99.90;;;;;;4877562;29;20504;-72
2022/08/14 09:19:18;;;;;;;7.47;7.17;;;28.60;99.90;;;;;;4878008;29;20469;-73
2022/08/14 09:21:46;;;;;;;7.50;7.20;;;28.60;99.90;;;;;;4877845;29;20962;-72
2022/08/14 09:24:14;;;;;;;8.23;7.57;;;28.60;99.90;;;;;;4878627;29;20862;-72
2022/08/14 09:26:42;;;;;;;8.27;7.77;;;28.50;99.90;;;;;;4878105;29;21071;-72
2022/08/14 09:29:10;;;;;;;7.90;7.40;;;28.60;99.90;;;;;;4878263;29;20819;-72
2022/08/14 09:31:39;;;;;;;8.43;8.03;;;28.60;99.90;;;;;;4878648;29;21114;-73
2022/08/14 09:34:18;;;;;;;8.87;8.40;;;28.50;99.90;;;;;;4877921;29;20900;-72
2022/08/14 09:37:11;;;;;;;9.10;8.27;;;28.60;99.90;;;;;;4878438;29;20552;-73
2022/08/14 09:39:57;;;;;;;8.33;7.83;;;28.70;99.90;;;;;;4877441;29;20856;-73
2022/08/14 09:42:47;;;;;;;8.13;7.70;;;28.70;99.90;;;;;;4869882;29;20469;-72
2022/08/14 09:45:16;;;;;;;7.83;7.43;;;28.70;99.90;;;;;;4875594;29;20524;-72
2022/08/14 09:47:46;;;;;;;9.03;8.27;;;28.60;99.90;;;;;;4878169;29;20469;-72
2022/08/14 09:50:23;;;;;;;8.27;7.87;;;28.60;99.90;;;;;;4877001;29;20477;-72
2022/08/14 09:52:53;;;;;;;8.50;8.00;;;28.60;99.90;;;;;;4876527;29;20477;-71
2022/08/14 09:55:22;;;;;;;6.73;6.53;;;28.60;99.90;;;;;;4877941;29;20580;-72
2022/08/14 09:57:50;;;;;;;6.97;6.67;;;28.50;99.90;;;;;;4880886;29;20469;-72
2022/08/14 10:00:19;;;;;;;8.43;7.93;;;28.50;99.90;;;;;;4881370;29;20564;-72
2022/08/14 10:02:53;;;;;;;7.60;7.20;;;28.70;99.90;;;;;;4879908;29;20505;-71
2022/08/14 10:05:32;;;;;;;7.70;7.10;;;28.70;99.90;;;;;;4878489;29;20579;-72
2022/08/14 10:08:01;;;;;;;8.10;7.60;;;28.60;99.90;;;;;;4878770;29;20496;-72
2022/08/14 10:10:30;;;;;;;8.07;7.70;;;28.60;99.90;;;;;;4879949;29;20481;-71
2022/08/14 10:12:57;;;;;;;7.63;7.33;;;28.60;99.90;;;;;;4879178;29;20900;-73
2022/08/14 10:15:25;;;;;;;7.33;7.03;;;28.50;99.90;;;;;;4878905;29;20461;-72
2022/08/14 10:18:08;;;;;;;8.50;8.10;;;28.50;99.90;;;;;;4878371;29;20811;-73
2022/08/14 10:20:40;;;;;;;7.33;7.03;;;28.40;99.90;;;;;;4877748;29;20483;-72
2022/08/14 10:23:12;;;;;;;7.80;7.40;;;28.40;99.90;;;;;;4874589;29;20988;-74
2022/08/14 10:25:42;;;;;;;7.97;7.57;;;28.30;99.90;;;;;;4877746;29;20489;-72
2022/08/14 10:28:09;;;;;;;8.43;7.70;;;28.40;99.90;;;;;;4876823;29;20477;-73
2022/08/14 10:30:37;;;;;;;7.33;7.13;;;28.40;99.90;;;;;;4874804;29;20548;-71
2022/08/14 10:33:04;;;;;;;7.90;7.60;;;28.50;99.90;;;;;;4873736;29;20493;-72
2022/08/14 10:35:41;;;;;;;8.33;7.93;;;28.50;99.90;;;;;;4874560;29;20859;-73
2022/08/14 10:38:09;;;;;;;9.20;8.40;;;28.60;99.90;;;;;;4875726;29;20528;-71
2022/08/14 10:40:37;;;;;;;8.13;7.83;;;28.60;99.90;;;;;;4877270;29;20501;-72
2022/08/14 10:43:15;;;;;;;8.27;7.87;;;28.70;99.90;;;;;;4877081;29;20647;-72
2022/08/14 10:45:53;;;;;;;8.60;8.20;;;28.70;99.90;;;;;;4871725;29;20484;-72
2022/08/14 10:48:20;;;;;;;8.37;7.97;;;28.80;99.90;;;;;;4877897;29;20549;-73
2022/08/14 10:50:50;;;;;;;9.20;8.80;;;28.70;99.90;;;;;;4877272;29;20909;-72
2022/08/14 10:53:28;;;;;;;9.07;8.57;;;28.70;99.90;;;;;;4876593;29;20481;-71
2022/08/14 10:55:59;;;;;;;8.20;7.80;;;28.80;99.90;;;;;;4876662;29;20592;-71
2022/08/14 10:58:30;;;;;;;10.03;9.13;;;28.80;99.90;;;;;;4876722;29;20484;-71
2022/08/14 11:00:59;;;;;;;9.00;8.60;;;29.00;99.90;;;;;;4877291;29;20477;-71
2022/08/14 11:03:37;;;;;;;8.70;8.30;;;29.10;99.90;;;;;;4875132;29;20460;-71
2022/08/14 11:06:18;;;;;;;8.23;7.80;;;29.20;99.90;;;;;;4879908;29;20500;-72
2022/08/14 11:08:45;;;;;;;8.70;8.03;;;29.50;99.90;;;;;;4880719;29;20460;-73
2022/08/14 11:11:12;;;;;;;8.37;7.97;;;29.60;99.90;;;;;;4880960;29;20473;-73
2022/08/14 11:13:42;;;;;;;8.77;8.23;;;29.70;99.90;;;;;;4881030;29;21103;-73
2022/08/14 11:16:10;;;;;;;8.03;7.53;;;29.90;99.90;;;;;;4880730;29;20925;-73
2022/08/14 11:18:37;;;;;;;8.20;7.83;;;29.90;99.90;;;;;;4880391;29;20476;-73
2022/08/14 11:21:06;;;;;;;8.20;7.90;;;29.90;99.90;;;;;;4880971;29;20476;-73
2022/08/14 11:23:37;;;;;;;8.50;8.10;;;30.00;99.90;;;;;;4880743;29;20504;-73
2022/08/14 11:26:05;;;;;;;8.23;7.83;;;30.00;99.90;;;;;;4874121;29;20595;-73
2022/08/14 11:28:34;;;;;;;9.07;8.57;;;30.10;99.90;;;;;;4879394;29;20565;-70
2022/08/14 11:31:03;;;;;;;8.40;8.00;;;30.20;99.90;;;;;;4880161;29;20472;-71
2022/08/14 11:33:33;;;;;;;9.27;8.87;;;30.30;99.90;;;;;;4879060;29;20477;-71
2022/08/14 11:36:03;;;;;;;9.00;8.50;;;30.20;99.90;;;;;;4876949;29;20870;-71
2022/08/14 11:38:37;;;;;;;8.27;7.73;;;30.20;99.90;;;;;;4879137;29;20879;-71
2022/08/14 11:41:05;;;;;;;7.60;7.20;;;30.30;99.90;;;;;;4879376;29;20464;-71
2022/08/14 11:43:31;;;;;;;7.70;7.40;;;30.50;99.00;;;;;;4878465;29;20532;-71
2022/08/14 11:46:01;;;;;;;7.77;7.47;;;30.40;98.50;;;;;;4878599;29;20579;-71
2022/08/14 11:48:28;;;;;;;7.83;7.40;;;30.60;97.90;;;;;;4879639;29;20481;-73
2022/08/14 11:50:55;;;;;;;7.80;7.43;;;30.70;96.50;;;;;;4879505;29;20477;-73
2022/08/14 11:53:24;;;;;;;8.03;7.53;;;30.90;96.00;;;;;;4877921;29;20579;-71
2022/08/14 11:55:57;;;;;;;7.70;7.30;;;31.20;95.80;;;;;;4875234;29;20492;-71
2022/08/14 11:58:29;;;;;;;7.67;7.30;;;31.30;95.30;;;;;;4879432;29;21025;-71
2022/08/14 12:01:02;;;;;;;7.97;7.60;;;31.30;94.60;;;;;;4877073;29;20555;-72
2022/08/14 12:03:37;;;;;;;7.17;6.77;;;31.30;94.90;;;;;;4879321;29;20500;-71
2022/08/14 12:06:06;;;;;;;8.07;7.57;;;31.50;94.20;;;;;;4879760;29;20483;-71
2022/08/14 12:08:34;;;;;;;8.17;7.70;;;31.60;93.60;;;;;;4879784;29;20532;-71
2022/08/14 12:11:03;;;;;;;7.40;7.03;;;31.40;93.50;;;;;;4876107;29;21019;-71
2022/08/14 12:13:32;;;;;;;7.70;7.40;;;31.50;92.70;;;;;;4878711;29;20552;-71
2022/08/14 12:16:01;;;;;;;7.10;6.80;;;31.70;92.00;;;;;;4869104;29;20563;-72
2022/08/14 12:18:33;;;;;;;8.27;7.87;;;31.80;92.00;;;;;;4878774;29;20846;-72
2022/08/14 12:21:11;;;;;;;8.57;8.07;;;31.80;91.50;;;;;;4878259;29;20473;-71
2022/08/14 12:23:38;;;;;;;8.30;7.80;;;31.60;91.40;;;;;;4872559;29;20526;-71
2022/08/14 12:26:07;;;;;;;8.83;8.40;;;31.50;92.00;;;;;;4874067;29;20545;-72
2022/08/14 12:28:34;;;;;;;9.27;8.40;;;31.40;91.50;;;;;;4877694;29;20536;-72
2022/08/14 12:31:12;;;;;;;8.80;8.27;;;31.40;91.40;;;;;;4878725;29;20563;-72
2022/08/14 12:33:38;;;;;;;8.43;7.93;;;31.50;91.50;;;;;;4878571;29;20468;-72
2022/08/14 12:36:09;;;;;;;6.67;6.37;;;31.50;91.50;;;;;;4876328;29;20500;-71
2022/08/14 12:38:40;;;;;;;8.87;8.37;;;31.50;91.20;;;;;;4877239;29;20469;-73
2022/08/14 12:41:12;;;;;;;7.50;7.20;;;31.40;91.60;;;;;;4879183;29;20473;-72
2022/08/14 12:43:47;;;;;;;8.80;8.00;;;31.40;90.80;;;;;;4878657;29;20480;-72
2022/08/14 12:46:22;;;;;;;8.77;8.20;;;31.40;90.70;;;;;;4878647;29;20559;-71
2022/08/14 12:48:49;;;;;;;7.57;7.27;;;31.50;91.00;;;;;;4874507;29;20483;-72
2022/08/14 12:51:19;;;;;;;9.17;8.47;;;31.40;90.70;;;;;;4879128;29;20526;-72
2022/08/14 12:53:46;;;;;;;8.37;7.87;;;31.30;91.10;;;;;;4878526;29;20886;-71
2022/08/14 12:56:17;;;;;;;7.97;7.57;;;31.10;90.30;;;;;;4876918;29;20497;-72
2022/08/14 12:58:49;;;;;;;8.10;7.50;;;31.00;90.50;;;;;;4877441;29;20474;-72
2022/08/14 13:01:19;;;;;;;7.50;7.10;;;30.90;90.50;;;;;;4875324;29;20496;-72
2022/08/14 13:03:46;;;;;;;8.13;7.63;;;30.90;90.70;;;;;;4878236;29;20484;-72
2022/08/14 13:06:14;;;;;;;9.37;8.83;;;30.80;90.70;;;;;;4877426;29;20500;-71
2022/08/14 13:08:41;;;;;;;8.57;8.17;;;30.80;91.40;;;;;;4876876;29;20469;-71
2022/08/14 13:11:12;;;;;;;8.37;7.97;;;30.80;91.30;;;;;;4877966;29;20563;-72
2022/08/14 13:13:43;;;;;;;9.33;8.73;;;30.90;91.80;;;;;;4877636;29;20627;-71
2022/08/14 13:16:12;;;;;;;8.63;7.93;;;31.10;91.60;;;;;;4878127;29;20861;-71
2022/08/14 13:18:41;;;;;;;9.20;8.60;;;31.20;91.10;;;;;;4878083;29;20469;-71
2022/08/14 13:21:10;;;;;;;9.30;8.90;;;31.30;91.40;;;;;;4878843;29;20476;-72
2022/08/14 13:23:41;;;;;;;9.30;8.80;;;31.20;91.00;;;;;;4890896;29;20468;-72
2022/08/14 13:26:08;;;;;;;9.83;9.30;;;31.20;91.30;;;;;;4892970;29;20478;-71
2022/08/14 13:28:42;;;;;;;9.10;8.57;;;31.20;90.90;;;;;;4896167;29;20561;-72
2022/08/14 13:31:12;;;;;;;9.30;8.70;;;31.30;91.10;;;;;;4897697;29;20629;-71
2022/08/14 13:33:39;;;;;;;8.20;7.70;;;31.40;90.90;;;;;;4893393;29;20480;-72
2022/08/14 13:36:08;;;;;;;9.07;8.47;;;31.50;90.40;;;;;;4897234;29;20510;-71
2022/08/14 13:38:35;;;;;;;9.00;8.50;;;31.50;90.10;;;;;;4869664;29;20466;-72
2022/08/14 13:41:04;;;;;;;8.37;8.07;;;31.50;90.40;;;;;;4873858;29;20502;-72
2022/08/14 13:43:32;;;;;;;9.30;8.80;;;31.50;90.60;;;;;;4878840;29;20479;-71
2022/08/14 13:46:00;;;;;;;10.73;9.83;;;31.40;90.10;;;;;;4878546;29;20536;-72
2022/08/14 13:48:27;;;;;;;12.20;11.20;;;31.40;90.20;;;;;;4877865;29;21013;-72
2022/08/14 13:50:57;;;;;;;10.70;10.00;;;31.60;90.30;;;;;;4877660;29;20533;-72
2022/08/14 13:53:28;;;;;;;10.10;9.60;;;31.60;90.00;;;;;;4877545;29;20521;-72
2022/08/14 13:55:56;;;;;;;9.50;8.90;;;31.60;90.10;;;;;;4871785;29;20920;-72
2022/08/14 13:58:24;;;;;;;9.47;8.77;;;31.70;88.90;;;;;;4877720;29;20488;-72
2022/08/14 14:00:52;;;;;;;10.83;10.13;;;31.80;88.40;;;;;;4878245;29;20464;-72
2022/08/14 14:03:22;;;;;;;9.43;8.93;;;31.80;88.40;;;;;;4881113;29;20472;-72
2022/08/14 14:05:54;;;;;;;9.47;9.07;;;31.70;88.80;;;;;;4879888;29;20548;-72
2022/08/14 14:08:23;;;;;;;9.43;8.93;;;31.60;89.30;;;;;;4879709;29;20494;-72
2022/08/14 14:10:51;;;;;;;9.10;8.60;;;31.60;88.40;;;;;;4872716;29;20481;-72
2022/08/14 14:13:20;;;;;;;9.70;9.20;;;31.50;88.50;;;;;;4880346;29;20508;-72
2022/08/14 14:15:48;;;;;;;9.27;8.77;;;31.60;89.60;;;;;;4876317;29;21021;-72
2022/08/14 14:18:15;;;;;;;9.57;8.97;;;31.60;87.60;;;;;;4877237;29;20453;-71
2022/08/14 14:20:45;;;;;;;9.30;8.90;;;31.60;87.50;;;;;;4876089;29;20557;-72
2022/08/14 14:23:13;;;;;;;8.80;8.40;;;31.60;87.00;;;;;;4876607;29;22514;-72
2022/08/14 14:25:42;;;;;;;9.23;8.70;;;31.60;87.10;;;;;;4875499;29;20963;-72
2022/08/14 14:28:10;;;;;;;9.53;8.93;;;31.60;87.10;;;;;;4875084;29;20495;-72
2022/08/14 14:30:41;;;;;;;9.60;9.00;;;31.70;87.30;;;;;;4876766;29;20473;-72
2022/08/14 14:33:10;;;;;;;9.90;9.30;;;31.80;87.30;;;;;;4876797;29;20473;-72
2022/08/14 14:35:38;;;;;;;9.40;8.90;;;31.80;86.50;;;;;;4875784;29;20488;-72
2022/08/14 14:38:08;;;;;;;9.37;8.87;;;31.80;85.90;;;;;;4876853;29;20473;-71
2022/08/14 14:40:37;;;;;;;9.30;8.80;;;31.80;84.80;;;;;;4877280;29;20560;-72
2022/08/14 14:43:08;;;;;;;9.33;8.83;;;31.60;85.30;;;;;;4876135;29;20853;-71
2022/08/14 14:45:37;;;;;;;9.20;8.80;;;31.60;84.00;;;;;;4875456;29;20572;-72
2022/08/14 14:48:07;;;;;;;9.20;8.70;;;31.60;84.10;;;;;;4876336;29;20488;-72
2022/08/14 14:50:37;;;;;;;9.90;9.20;;;31.80;84.00;;;;;;4876628;29;20491;-71
2022/08/14 14:53:04;;;;;;;8.87;8.37;;;31.80;83.50;;;;;;4876933;29;20473;-72
2022/08/14 14:55:32;;;;;;;9.47;8.87;;;31.90;83.10;;;;;;4873665;29;20584;-72
2022/08/14 14:57:59;;;;;;;8.57;8.17;;;32.00;82.90;;;;;;4878855;29;20473;-71
2022/08/14 15:00:26;;;;;;;9.27;8.53;;;32.00;81.60;;;;;;4876415;29;20472;-72
2022/08/14 15:02:56;;;;;;;9.20;8.80;;;32.00;82.50;;;;;;4876793;29;20520;-72
2022/08/14 15:05:23;;;;;;;8.90;8.50;;;32.00;82.50;;;;;;4876019;29;20479;-71
2022/08/14 15:07:51;;;;;;;8.40;8.00;;;32.00;82.70;;;;;;4875905;29;21035;-71
2022/08/14 15:10:20;;;;;;;8.87;8.50;;;31.90;81.80;;;;;;4876532;29;20475;-72
2022/08/14 15:12:48;;;;;;;9.43;8.93;;;31.90;83.30;;;;;;4876362;29;20500;-71
2022/08/14 15:15:15;;;;;;;8.27;7.87;;;32.00;84.60;;;;;;4872878;29;20893;-74
2022/08/14 15:17:42;;;;;;;8.80;8.23;;;32.00;84.20;;;;;;4875360;29;20551;-71
2022/08/14 15:20:11;;;;;;;9.73;8.83;;;32.10;83.90;;;;;;4876308;29;20480;-72
2022/08/14 15:22:38;;;;;;;8.30;7.90;;;32.10;83.40;;;;;;4876083;29;20468;-71
2022/08/14 15:25:06;;;;;;;8.90;8.40;;;32.10;83.30;;;;;;4876084;29;20465;-71
2022/08/14 15:27:33;;;;;;;8.77;8.23;;;32.10;84.30;;;;;;4875602;29;20857;-72
2022/08/14 15:30:01;;;;;;;9.00;8.43;;;32.10;84.30;;;;;;4876592;29;20464;-72
2022/08/14 15:32:28;;;;;;;8.70;8.20;;;32.10;84.60;;;;;;4876412;29;20477;-72
2022/08/14 15:34:55;;;;;;;9.20;8.67;;;32.10;83.40;;;;;;4876141;29;20469;-72
2022/08/14 15:37:22;;;;;;;9.07;8.57;;;32.10;83.20;;;;;;4876196;29;20561;-72
2022/08/14 15:39:49;;;;;;;8.90;8.40;;;32.00;83.40;;;;;;4875912;29;20504;-71
2022/08/14 15:42:16;;;;;;;9.40;8.90;;;32.00;83.40;;;;;;4876081;29;20468;-72
2022/08/14 15:44:44;;;;;;;9.10;8.70;;;32.00;83.60;;;;;;4876323;29;20491;-72
2022/08/14 15:47:12;;;;;;;9.10;8.43;;;31.90;82.60;;;;;;4875592;29;20997;-72
2022/08/14 15:49:39;;;;;;;8.73;8.23;;;31.90;83.70;;;;;;4876327;29;20524;-72
2022/08/14 15:52:06;;;;;;;9.33;8.73;;;31.90;83.30;;;;;;4879599;29;20498;-72
2022/08/14 15:54:33;;;;;;;8.80;8.20;;;31.80;83.30;;;;;;4879464;29;20532;-72
2022/08/14 15:57:03;;;;;;;8.97;8.57;;;31.80;82.80;;;;;;4879619;29;20492;-72
2022/08/14 16:01:18;;;;;;;8.93;8.50;;;31.80;82.60;;;;;;4879184;29;20466;-72
2022/08/14 16:02:20;;;;;;;8.83;8.40;;;31.80;82.20;;;;;;4879056;29;20971;-72
2022/08/14 16:04:47;;;;;;;8.67;8.27;;;31.80;81.30;;;;;;4879166;29;20464;-72
2022/08/14 16:07:14;;;;;;;8.47;8.07;;;31.80;82.20;;;;;;4878539;29;20488;-72
2022/08/14 16:09:41;;;;;;;9.80;9.10;;;31.70;82.40;;;;;;4879763;29;20483;-71
2022/08/14 16:12:09;;;;;;;8.50;7.90;;;31.70;82.70;;;;;;4874682;29;20479;-70
2022/08/14 16:14:37;;;;;;;7.93;7.53;;;31.60;82.40;;;;;;4877895;29;20480;-72
2022/08/14 16:17:06;;;;;;;8.63;8.23;;;31.60;82.40;;;;;;4879267;29;20560;-73
2022/08/14 16:19:35;;;;;;;9.13;8.47;;;31.60;82.10;;;;;;4879646;29;20578;-73
2022/08/14 16:22:04;;;;;;;8.77;8.27;;;31.60;81.90;;;;;;4879139;29;20499;-73
2022/08/14 16:24:40;;;;;;;9.20;8.70;;;31.50;81.50;;;;;;4878080;29;20476;-73
2022/08/14 16:27:08;;;;;;;9.00;8.53;;;31.40;82.10;;;;;;4877405;29;20575;-74
2022/08/14 16:29:38;;;;;;;9.90;9.30;;;31.40;81.60;;;;;;4879186;29;20799;-74
2022/08/14 16:32:08;;;;;;;9.37;8.97;;;31.40;82.40;;;;;;4879176;29;20480;-74
2022/08/14 16:34:38;;;;;;;7.80;7.50;;;31.40;82.80;;;;;;4878499;29;20481;-73
2022/08/14 16:37:05;;;;;;;9.13;8.43;;;31.40;82.70;;;;;;4878835;29;20488;-73
2022/08/14 16:39:36;;;;;;;9.40;8.90;;;31.30;82.00;;;;;;4876849;29;20473;-73
2022/08/14 16:42:03;;;;;;;8.57;8.07;;;31.30;83.50;;;;;;4878437;29;20526;-72
2022/08/14 16:44:36;;;;;;;8.87;8.37;;;31.20;82.00;;;;;;4877229;29;20488;-71
2022/08/14 16:47:05;;;;;;;8.83;8.43;;;31.10;82.90;;;;;;4877602;29;20492;-71
2022/08/14 16:49:32;;;;;;;8.30;7.90;;;31.10;82.30;;;;;;4877694;29;20587;-74
2022/08/14 16:52:02;;;;;;;8.40;8.10;;;31.00;83.60;;;;;;4875353;29;20481;-72
2022/08/14 16:54:30;;;;;;;8.80;8.40;;;30.90;83.10;;;;;;4876316;29;20519;-71
2022/08/14 16:57:15;;;;;;;9.20;8.50;;;30.80;83.30;;;;;;4874082;29;20520;-72
2022/08/14 16:59:42;;;;;;;8.83;8.33;;;30.70;83.40;;;;;;4876754;29;20543;-72
2022/08/14 17:02:09;;;;;;;8.80;8.40;;;30.60;83.40;;;;;;4874524;29;20480;-72
2022/08/14 17:04:37;;;;;;;9.87;9.17;;;30.50;84.50;;;;;;4877954;29;20544;-72
2022/08/14 17:07:08;;;;;;;8.97;8.40;;;30.50;85.10;;;;;;4875054;29;20909;-72